Estrella La Manana — EA5263 — position and weather

sailwx.info

Track history (hours):
 
Tides and Currents Weather Stations Pressure Air Temp Water Temp Dewpoint Dewpoint Depression Visibility Wind Speed Wind Dir Waves Ship Positions

Estrella La Manana

Last reported at 2018-May-23 13:29 UTC. Time now 2018-Jun-20 17:07 UTC.
Position N 43°35' W 004°14'.
Warning: this ship's position is 28 days out of date.

Length 16 m.

Type: Fishing. MMSI: 224027890.

Date/timePositionNaut miles runAvg speedWind from/ knotsBaromVisibWave heightAir tempDewpointWater temp
2018-May-23 13:29N 43°35' W 004°14'29 0.9
2018-May-22 04:46N 43°44' W 004°52'0 0.3
2018-May-22 04:18N 43°44' W 004°52'0 0.3
2018-May-22 04:00N 43°44' W 004°53'2 0.5
2018-May-22 00:28N 43°42' W 004°54'0 0.1
2018-May-22 00:00N 43°42' W 004°53'0 0.1
2018-May-21 23:30N 43°42' W 004°53'0 0.0
2018-May-21 23:00N 43°42' W 004°53'0 0.1
2018-May-21 21:52N 43°42' W 004°53'1 0.3
2018-May-21 19:42N 43°42' W 004°53'  
Track history (hours):
 
Tides and Currents Weather Stations Pressure Air Temp Water Temp Dewpoint Dewpoint Depression Visibility Wind Speed Wind Dir Waves Ship Positions

Estrella La Manana

Last reported at 2018-May-23 13:29 UTC. Time now 2018-Jun-20 17:07 UTC.
Position N 43°35' W 004°14'.
Warning: this ship's position is 28 days out of date.

Length 16 m.

Type: Fishing. MMSI: 224027890.

Date/timePositionNaut miles runAvg speedWind from/ knotsBaromVisibWave heightAir tempDewpointWater temp
2018-May-23 13:29N 43°35' W 004°14'29 0.9
2018-May-22 04:46N 43°44' W 004°52'0 0.3
2018-May-22 04:18N 43°44' W 004°52'0 0.3
2018-May-22 04:00N 43°44' W 004°53'2 0.5
2018-May-22 00:28N 43°42' W 004°54'0 0.1
2018-May-22 00:00N 43°42' W 004°53'0 0.1
2018-May-21 23:30N 43°42' W 004°53'0 0.0
2018-May-21 23:00N 43°42' W 004°53'0 0.1
2018-May-21 21:52N 43°42' W 004°53'1 0.3
2018-May-21 19:42N 43°42' W 004°53'  

Dump ship's entire track history